sensor_id;sensor_type;location;lat;lon;timestamp;P1;durP1;ratioP1;P2;durP2;ratioP2
24435;SDS011;12616;52.470;13.436;2023-01-10T00:00:52;5.93;;;3.22;;
24435;SDS011;12616;52.470;13.436;2023-01-10T00:03:19;5.75;;;2.75;;
24435;SDS011;12616;52.470;13.436;2023-01-10T00:05:47;4.53;;;2.45;;
24435;SDS011;12616;52.470;13.436;2023-01-10T00:08:14;4.25;;;3.53;;
24435;SDS011;12616;52.470;13.436;2023-01-10T00:10:42;2.53;;;2.28;;
24435;SDS011;12616;52.470;13.436;2023-01-10T00:13:12;3.05;;;2.08;;
24435;SDS011;12616;52.470;13.436;2023-01-10T00:15:48;3.08;;;2.78;;
24435;SDS011;12616;52.470;13.436;2023-01-10T00:18:16;3.85;;;3.10;;
24435;SDS011;12616;52.470;13.436;2023-01-10T00:20:42;3.47;;;2.97;;
24435;SDS011;12616;52.470;13.436;2023-01-10T00:23:12;3.60;;;3.30;;
24435;SDS011;12616;52.470;13.436;2023-01-10T00:25:39;3.92;;;3.25;;
24435;SDS011;12616;52.470;13.436;2023-01-10T00:28:06;3.00;;;2.50;;
24435;SDS011;12616;52.470;13.436;2023-01-10T00:30:45;4.72;;;3.83;;
24435;SDS011;12616;52.470;13.436;2023-01-10T00:33:13;6.25;;;3.28;;
24435;SDS011;12616;52.470;13.436;2023-01-10T00:35:44;4.60;;;3.20;;
24435;SDS011;12616;52.470;13.436;2023-01-10T00:38:13;3.55;;;2.53;;
24435;SDS011;12616;52.470;13.436;2023-01-10T00:40:40;5.25;;;3.45;;
24435;SDS011;12616;52.470;13.436;2023-01-10T00:43:07;5.05;;;3.42;;
24435;SDS011;12616;52.470;13.436;2023-01-10T00:45:52;4.45;;;2.83;;
24435;SDS011;12616;52.470;13.436;2023-01-10T00:48:19;2.53;;;2.33;;
24435;SDS011;12616;52.470;13.436;2023-01-10T00:50:45;3.58;;;2.90;;
24435;SDS011;12616;52.470;13.436;2023-01-10T00:53:14;5.50;;;3.03;;
24435;SDS011;12616;52.470;13.436;2023-01-10T00:55:41;3.38;;;2.40;;
24435;SDS011;12616;52.470;13.436;2023-01-10T00:58:08;2.75;;;2.55;;
24435;SDS011;12616;52.470;13.436;2023-01-10T01:00:35;3.75;;;3.17;;
24435;SDS011;12616;52.470;13.436;2023-01-10T01:03:03;3.40;;;3.10;;
24435;SDS011;12616;52.470;13.436;2023-01-10T01:05:32;4.25;;;2.92;;
24435;SDS011;12616;52.470;13.436;2023-01-10T01:07:58;5.03;;;3.80;;
24435;SDS011;12616;52.470;13.436;2023-01-10T01:10:26;10.93;;;6.70;;
24435;SDS011;12616;52.470;13.436;2023-01-10T01:12:54;4.43;;;3.15;;
24435;SDS011;12616;52.470;13.436;2023-01-10T01:15:22;5.88;;;3.15;;
24435;SDS011;12616;52.470;13.436;2023-01-10T01:17:49;2.88;;;2.55;;
24435;SDS011;12616;52.470;13.436;2023-01-10T01:20:16;3.97;;;3.03;;
24435;SDS011;12616;52.470;13.436;2023-01-10T01:22:44;4.18;;;3.03;;
24435;SDS011;12616;52.470;13.436;2023-01-10T01:25:11;3.40;;;3.10;;
24435;SDS011;12616;52.470;13.436;2023-01-10T01:27:39;3.90;;;3.33;;
24435;SDS011;12616;52.470;13.436;2023-01-10T01:30:07;4.57;;;2.80;;
24435;SDS011;12616;52.470;13.436;2023-01-10T01:32:35;3.05;;;2.75;;
24435;SDS011;12616;52.470;13.436;2023-01-10T01:35:02;3.42;;;2.88;;
24435;SDS011;12616;52.470;13.436;2023-01-10T01:37:29;5.72;;;2.33;;
24435;SDS011;12616;52.470;13.436;2023-01-10T01:39:57;4.28;;;3.13;;
24435;SDS011;12616;52.470;13.436;2023-01-10T01:42:25;5.00;;;3.90;;
24435;SDS011;12616;52.470;13.436;2023-01-10T01:47:59;4.20;;;3.70;;
24435;SDS011;12616;52.470;13.436;2023-01-10T01:50:31;3.95;;;3.55;;
24435;SDS011;12616;52.470;13.436;2023-01-10T01:53:02;3.55;;;3.25;;
24435;SDS011;12616;52.470;13.436;2023-01-10T01:55:34;4.55;;;3.30;;
24435;SDS011;12616;52.470;13.436;2023-01-10T01:58:02;5.72;;;3.70;;
24435;SDS011;12616;52.470;13.436;2023-01-10T02:00:36;3.92;;;2.97;;
24435;SDS011;12616;52.470;13.436;2023-01-10T02:03:03;3.45;;;3.13;;
24435;SDS011;12616;52.470;13.436;2023-01-10T02:05:31;4.35;;;3.83;;
24435;SDS011;12616;52.470;13.436;2023-01-10T02:08:01;4.00;;;3.63;;
24435;SDS011;12616;52.470;13.436;2023-01-10T02:10:29;5.38;;;3.30;;
24435;SDS011;12616;52.470;13.436;2023-01-10T02:13:02;5.20;;;3.25;;
24435;SDS011;12616;52.470;13.436;2023-01-10T02:15:32;3.05;;;2.78;;
24435;SDS011;12616;52.470;13.436;2023-01-10T02:18:01;3.97;;;3.55;;
24435;SDS011;12616;52.470;13.436;2023-01-10T02:20:29;3.67;;;3.05;;
24435;SDS011;12616;52.470;13.436;2023-01-10T02:29:36;5.22;;;3.20;;
24435;SDS011;12616;52.470;13.436;2023-01-10T02:32:35;5.13;;;3.35;;
24435;SDS011;12616;52.470;13.436;2023-01-10T02:35:11;3.67;;;2.72;;
24435;SDS011;12616;52.470;13.436;2023-01-10T02:37:50;9.48;;;3.17;;
24435;SDS011;12616;52.470;13.436;2023-01-10T02:40:25;3.90;;;3.15;;
24435;SDS011;12616;52.470;13.436;2023-01-10T02:42:59;5.78;;;3.15;;
24435;SDS011;12616;52.470;13.436;2023-01-10T02:45:32;3.00;;;2.70;;
24435;SDS011;12616;52.470;13.436;2023-01-10T02:48:05;2.33;;;2.20;;
24435;SDS011;12616;52.470;13.436;2023-01-10T02:50:41;4.57;;;2.85;;
24435;SDS011;12616;52.470;13.436;2023-01-10T02:53:17;3.03;;;2.60;;
24435;SDS011;12616;52.470;13.436;2023-01-10T02:55:56;3.40;;;3.13;;
24435;SDS011;12616;52.470;13.436;2023-01-10T02:58:33;3.22;;;2.78;;
24435;SDS011;12616;52.470;13.436;2023-01-10T03:01:15;5.70;;;2.47;;
24435;SDS011;12616;52.470;13.436;2023-01-10T03:03:50;4.93;;;3.22;;
24435;SDS011;12616;52.470;13.436;2023-01-10T03:06:28;5.85;;;3.08;;
24435;SDS011;12616;52.470;13.436;2023-01-10T03:09:06;2.95;;;2.75;;
24435;SDS011;12616;52.470;13.436;2023-01-10T03:11:37;4.30;;;3.00;;
24435;SDS011;12616;52.470;13.436;2023-01-10T03:14:10;3.65;;;2.83;;
24435;SDS011;12616;52.470;13.436;2023-01-10T03:16:40;5.18;;;3.67;;
24435;SDS011;12616;52.470;13.436;2023-01-10T03:19:13;4.68;;;3.58;;
24435;SDS011;12616;52.470;13.436;2023-01-10T03:21:42;4.15;;;3.75;;
24435;SDS011;12616;52.470;13.436;2023-01-10T03:24:11;5.63;;;3.55;;
24435;SDS011;12616;52.470;13.436;2023-01-10T03:26:44;7.10;;;4.05;;
24435;SDS011;12616;52.470;13.436;2023-01-10T03:29:15;4.82;;;3.75;;
24435;SDS011;12616;52.470;13.436;2023-01-10T03:31:50;5.90;;;3.55;;
24435;SDS011;12616;52.470;13.436;2023-01-10T03:34:21;7.78;;;4.22;;
24435;SDS011;12616;52.470;13.436;2023-01-10T03:36:51;5.47;;;4.20;;
24435;SDS011;12616;52.470;13.436;2023-01-10T03:39:29;6.32;;;5.70;;
24435;SDS011;12616;52.470;13.436;2023-01-10T03:42:01;4.85;;;4.25;;
24435;SDS011;12616;52.470;13.436;2023-01-10T03:44:36;6.05;;;3.70;;
24435;SDS011;12616;52.470;13.436;2023-01-10T03:47:10;5.05;;;3.45;;
24435;SDS011;12616;52.470;13.436;2023-01-10T03:49:44;7.03;;;4.28;;
24435;SDS011;12616;52.470;13.436;2023-01-10T03:52:15;9.85;;;4.43;;
24435;SDS011;12616;52.470;13.436;2023-01-10T03:54:43;7.90;;;4.43;;
24435;SDS011;12616;52.470;13.436;2023-01-10T03:57:15;5.22;;;4.72;;
24435;SDS011;12616;52.470;13.436;2023-01-10T03:59:43;10.63;;;5.50;;
24435;SDS011;12616;52.470;13.436;2023-01-10T04:02:10;4.20;;;3.78;;
24435;SDS011;12616;52.470;13.436;2023-01-10T04:04:37;10.73;;;7.25;;
24435;SDS011;12616;52.470;13.436;2023-01-10T04:07:05;5.18;;;3.90;;
24435;SDS011;12616;52.470;13.436;2023-01-10T04:09:32;5.88;;;4.50;;
24435;SDS011;12616;52.470;13.436;2023-01-10T04:11:59;8.20;;;5.38;;
24435;SDS011;12616;52.470;13.436;2023-01-10T04:14:27;9.20;;;5.15;;
24435;SDS011;12616;52.470;13.436;2023-01-10T04:16:56;5.45;;;4.95;;
24435;SDS011;12616;52.470;13.436;2023-01-10T04:19:23;8.60;;;5.60;;
24435;SDS011;12616;52.470;13.436;2023-01-10T04:21:50;6.82;;;5.63;;
24435;SDS011;12616;52.470;13.436;2023-01-10T04:24:19;5.50;;;4.70;;
24435;SDS011;12616;52.470;13.436;2023-01-10T04:26:46;10.82;;;4.60;;
24435;SDS011;12616;52.470;13.436;2023-01-10T04:29:13;12.38;;;6.55;;
24435;SDS011;12616;52.470;13.436;2023-01-10T04:31:39;8.82;;;5.88;;
24435;SDS011;12616;52.470;13.436;2023-01-10T04:34:06;10.57;;;6.68;;
24435;SDS011;12616;52.470;13.436;2023-01-10T04:36:34;16.63;;;5.40;;
24435;SDS011;12616;52.470;13.436;2023-01-10T04:39:01;12.18;;;6.40;;
24435;SDS011;12616;52.470;13.436;2023-01-10T04:41:30;10.77;;;5.88;;
24435;SDS011;12616;52.470;13.436;2023-01-10T04:43:56;9.43;;;6.57;;
24435;SDS011;12616;52.470;13.436;2023-01-10T04:46:23;14.07;;;5.88;;
24435;SDS011;12616;52.470;13.436;2023-01-10T04:48:50;12.45;;;6.07;;
24435;SDS011;12616;52.470;13.436;2023-01-10T04:51:17;11.48;;;6.38;;
24435;SDS011;12616;52.470;13.436;2023-01-10T04:53:44;10.88;;;6.45;;
24435;SDS011;12616;52.470;13.436;2023-01-10T04:56:14;11.18;;;5.82;;
24435;SDS011;12616;52.470;13.436;2023-01-10T04:58:43;11.90;;;6.47;;
24435;SDS011;12616;52.470;13.436;2023-01-10T05:01:12;7.28;;;5.85;;
24435;SDS011;12616;52.470;13.436;2023-01-10T05:03:40;8.85;;;6.60;;
24435;SDS011;12616;52.470;13.436;2023-01-10T05:06:07;10.30;;;5.97;;
24435;SDS011;12616;52.470;13.436;2023-01-10T05:08:34;13.15;;;6.70;;
24435;SDS011;12616;52.470;13.436;2023-01-10T05:11:01;9.18;;;5.93;;
24435;SDS011;12616;52.470;13.436;2023-01-10T05:13:28;10.77;;;6.60;;
24435;SDS011;12616;52.470;13.436;2023-01-10T05:15:56;10.50;;;6.30;;
24435;SDS011;12616;52.470;13.436;2023-01-10T05:18:24;12.35;;;8.00;;
24435;SDS011;12616;52.470;13.436;2023-01-10T05:20:51;13.38;;;6.55;;
24435;SDS011;12616;52.470;13.436;2023-01-10T05:23:18;14.13;;;6.10;;
24435;SDS011;12616;52.470;13.436;2023-01-10T05:25:45;8.68;;;6.60;;
24435;SDS011;12616;52.470;13.436;2023-01-10T05:28:12;10.15;;;6.18;;
24435;SDS011;12616;52.470;13.436;2023-01-10T05:30:38;12.65;;;7.45;;
24435;SDS011;12616;52.470;13.436;2023-01-10T05:33:07;9.25;;;6.28;;
24435;SDS011;12616;52.470;13.436;2023-01-10T05:35:33;9.50;;;6.35;;
24435;SDS011;12616;52.470;13.436;2023-01-10T05:38:00;12.93;;;6.72;;
24435;SDS011;12616;52.470;13.436;2023-01-10T05:40:27;11.27;;;6.25;;
24435;SDS011;12616;52.470;13.436;2023-01-10T05:42:54;11.80;;;5.75;;
24435;SDS011;12616;52.470;13.436;2023-01-10T05:45:21;11.15;;;6.05;;
24435;SDS011;12616;52.470;13.436;2023-01-10T05:47:48;13.55;;;6.35;;
24435;SDS011;12616;52.470;13.436;2023-01-10T05:50:16;11.77;;;6.32;;
24435;SDS011;12616;52.470;13.436;2023-01-10T05:52:43;14.50;;;6.10;;
24435;SDS011;12616;52.470;13.436;2023-01-10T05:55:10;12.02;;;5.95;;
24435;SDS011;12616;52.470;13.436;2023-01-10T05:57:36;13.00;;;5.90;;
24435;SDS011;12616;52.470;13.436;2023-01-10T06:00:04;12.73;;;7.53;;
24435;SDS011;12616;52.470;13.436;2023-01-10T06:02:31;13.10;;;7.15;;
24435;SDS011;12616;52.470;13.436;2023-01-10T06:04:58;11.60;;;5.75;;
24435;SDS011;12616;52.470;13.436;2023-01-10T06:07:26;13.55;;;7.15;;
24435;SDS011;12616;52.470;13.436;2023-01-10T06:09:53;12.60;;;6.90;;
24435;SDS011;12616;52.470;13.436;2023-01-10T06:12:20;14.45;;;6.82;;
24435;SDS011;12616;52.470;13.436;2023-01-10T06:14:47;13.57;;;7.18;;
24435;SDS011;12616;52.470;13.436;2023-01-10T06:17:13;14.25;;;6.78;;
24435;SDS011;12616;52.470;13.436;2023-01-10T06:19:40;13.63;;;7.25;;
24435;SDS011;12616;52.470;13.436;2023-01-10T06:22:07;10.07;;;6.50;;
24435;SDS011;12616;52.470;13.436;2023-01-10T06:24:35;8.00;;;6.10;;
24435;SDS011;12616;52.470;13.436;2023-01-10T06:27:02;13.85;;;6.20;;
24435;SDS011;12616;52.470;13.436;2023-01-10T06:29:30;9.85;;;6.40;;
24435;SDS011;12616;52.470;13.436;2023-01-10T06:31:57;10.07;;;6.18;;
24435;SDS011;12616;52.470;13.436;2023-01-10T06:34:24;9.85;;;6.60;;
24435;SDS011;12616;52.470;13.436;2023-01-10T06:36:51;9.18;;;6.43;;
24435;SDS011;12616;52.470;13.436;2023-01-10T06:39:17;13.82;;;6.32;;
24435;SDS011;12616;52.470;13.436;2023-01-10T06:41:45;14.40;;;8.02;;
24435;SDS011;12616;52.470;13.436;2023-01-10T06:44:12;12.50;;;7.88;;
24435;SDS011;12616;52.470;13.436;2023-01-10T06:46:39;15.45;;;7.90;;
24435;SDS011;12616;52.470;13.436;2023-01-10T06:49:06;10.90;;;6.72;;
24435;SDS011;12616;52.470;13.436;2023-01-10T06:51:33;14.57;;;7.00;;
24435;SDS011;12616;52.470;13.436;2023-01-10T06:53:59;8.88;;;6.13;;
24435;SDS011;12616;52.470;13.436;2023-01-10T06:56:26;8.50;;;7.50;;
24435;SDS011;12616;52.470;13.436;2023-01-10T06:58:54;11.63;;;6.75;;
24435;SDS011;12616;52.470;13.436;2023-01-10T07:01:21;13.80;;;7.80;;
24435;SDS011;12616;52.470;13.436;2023-01-10T07:03:48;13.02;;;7.55;;
24435;SDS011;12616;52.470;13.436;2023-01-10T07:06:15;16.17;;;7.05;;
24435;SDS011;12616;52.470;13.436;2023-01-10T07:08:42;11.23;;;7.13;;
24435;SDS011;12616;52.470;13.436;2023-01-10T07:11:10;14.65;;;8.38;;
24435;SDS011;12616;52.470;13.436;2023-01-10T07:13:38;13.77;;;6.75;;
24435;SDS011;12616;52.470;13.436;2023-01-10T07:16:07;15.90;;;7.88;;
24435;SDS011;12616;52.470;13.436;2023-01-10T07:18:36;17.77;;;7.22;;
24435;SDS011;12616;52.470;13.436;2023-01-10T07:21:04;16.27;;;7.43;;
24435;SDS011;12616;52.470;13.436;2023-01-10T07:23:31;11.82;;;7.15;;
24435;SDS011;12616;52.470;13.436;2023-01-10T07:26:00;17.80;;;8.68;;
24435;SDS011;12616;52.470;13.436;2023-01-10T07:28:28;17.70;;;7.32;;
24435;SDS011;12616;52.470;13.436;2023-01-10T07:30:57;12.65;;;7.38;;
24435;SDS011;12616;52.470;13.436;2023-01-10T07:33:25;12.43;;;6.85;;
24435;SDS011;12616;52.470;13.436;2023-01-10T07:35:52;10.82;;;6.90;;
24435;SDS011;12616;52.470;13.436;2023-01-10T07:38:19;16.40;;;8.38;;
24435;SDS011;12616;52.470;13.436;2023-01-10T07:40:46;15.05;;;9.15;;
24435;SDS011;12616;52.470;13.436;2023-01-10T07:43:13;18.88;;;8.82;;
24435;SDS011;12616;52.470;13.436;2023-01-10T07:45:40;14.52;;;8.18;;
24435;SDS011;12616;52.470;13.436;2023-01-10T07:48:07;10.65;;;7.13;;
24435;SDS011;12616;52.470;13.436;2023-01-10T07:50:36;13.40;;;7.85;;
24435;SDS011;12616;52.470;13.436;2023-01-10T07:53:04;18.27;;;8.50;;
24435;SDS011;12616;52.470;13.436;2023-01-10T07:55:31;16.13;;;8.63;;
24435;SDS011;12616;52.470;13.436;2023-01-10T07:58:00;14.07;;;7.95;;
24435;SDS011;12616;52.470;13.436;2023-01-10T08:00:27;18.20;;;8.90;;
24435;SDS011;12616;52.470;13.436;2023-01-10T08:02:54;14.85;;;8.60;;
24435;SDS011;12616;52.470;13.436;2023-01-10T08:05:22;13.02;;;8.35;;
24435;SDS011;12616;52.470;13.436;2023-01-10T08:07:50;11.43;;;8.35;;
24435;SDS011;12616;52.470;13.436;2023-01-10T08:10:19;14.18;;;7.45;;
24435;SDS011;12616;52.470;13.436;2023-01-10T08:12:47;13.80;;;8.80;;
24435;SDS011;12616;52.470;13.436;2023-01-10T08:15:15;14.23;;;8.05;;
24435;SDS011;12616;52.470;13.436;2023-01-10T08:17:41;13.15;;;7.72;;
24435;SDS011;12616;52.470;13.436;2023-01-10T08:20:09;17.15;;;8.35;;
24435;SDS011;12616;52.470;13.436;2023-01-10T08:22:36;13.15;;;8.05;;
24435;SDS011;12616;52.470;13.436;2023-01-10T08:25:05;18.88;;;10.20;;
24435;SDS011;12616;52.470;13.436;2023-01-10T08:27:32;12.10;;;7.18;;
24435;SDS011;12616;52.470;13.436;2023-01-10T08:29:59;10.43;;;8.25;;
24435;SDS011;12616;52.470;13.436;2023-01-10T08:32:25;12.38;;;8.02;;
24435;SDS011;12616;52.470;13.436;2023-01-10T08:34:52;17.23;;;8.20;;
24435;SDS011;12616;52.470;13.436;2023-01-10T08:37:19;9.45;;;7.78;;
24435;SDS011;12616;52.470;13.436;2023-01-10T08:39:46;13.30;;;7.55;;
24435;SDS011;12616;52.470;13.436;2023-01-10T08:42:14;13.27;;;7.57;;
24435;SDS011;12616;52.470;13.436;2023-01-10T08:44:42;12.77;;;7.40;;
24435;SDS011;12616;52.470;13.436;2023-01-10T08:47:09;15.05;;;7.10;;
24435;SDS011;12616;52.470;13.436;2023-01-10T08:49:36;11.02;;;7.40;;
24435;SDS011;12616;52.470;13.436;2023-01-10T08:52:03;11.82;;;7.47;;
24435;SDS011;12616;52.470;13.436;2023-01-10T08:54:30;10.50;;;7.53;;
24435;SDS011;12616;52.470;13.436;2023-01-10T08:56:57;10.38;;;7.57;;
24435;SDS011;12616;52.470;13.436;2023-01-10T08:59:27;14.90;;;7.93;;
24435;SDS011;12616;52.470;13.436;2023-01-10T09:01:54;11.03;;;7.73;;
24435;SDS011;12616;52.470;13.436;2023-01-10T09:04:22;15.43;;;8.27;;
24435;SDS011;12616;52.470;13.436;2023-01-10T09:06:50;9.73;;;7.55;;
24435;SDS011;12616;52.470;13.436;2023-01-10T09:09:17;11.30;;;7.63;;
24435;SDS011;12616;52.470;13.436;2023-01-10T09:11:44;13.00;;;7.53;;
24435;SDS011;12616;52.470;13.436;2023-01-10T09:14:11;13.60;;;7.53;;
24435;SDS011;12616;52.470;13.436;2023-01-10T09:16:39;21.48;;;8.18;;
24435;SDS011;12616;52.470;13.436;2023-01-10T09:19:06;12.30;;;7.35;;
24435;SDS011;12616;52.470;13.436;2023-01-10T09:21:33;18.60;;;7.55;;
24435;SDS011;12616;52.470;13.436;2023-01-10T09:24:00;13.27;;;7.43;;
24435;SDS011;12616;52.470;13.436;2023-01-10T09:26:27;13.40;;;7.22;;
24435;SDS011;12616;52.470;13.436;2023-01-10T09:28:53;13.57;;;7.43;;
24435;SDS011;12616;52.470;13.436;2023-01-10T09:31:20;11.75;;;6.65;;
24435;SDS011;12616;52.470;13.436;2023-01-10T09:33:48;10.93;;;7.22;;
24435;SDS011;12616;52.470;13.436;2023-01-10T09:36:15;13.40;;;7.75;;
24435;SDS011;12616;52.470;13.436;2023-01-10T09:38:42;8.65;;;6.40;;
24435;SDS011;12616;52.470;13.436;2023-01-10T09:41:18;10.93;;;7.05;;
24435;SDS011;12616;52.470;13.436;2023-01-10T09:43:58;10.15;;;6.65;;
24435;SDS011;12616;52.470;13.436;2023-01-10T09:46:33;10.60;;;6.43;;
24435;SDS011;12616;52.470;13.436;2023-01-10T09:49:13;12.88;;;7.43;;
24435;SDS011;12616;52.470;13.436;2023-01-10T09:51:45;8.40;;;6.55;;
24435;SDS011;12616;52.470;13.436;2023-01-10T09:54:16;11.27;;;7.75;;
24435;SDS011;12616;52.470;13.436;2023-01-10T09:56:48;13.55;;;6.05;;
24435;SDS011;12616;52.470;13.436;2023-01-10T09:59:16;13.27;;;6.55;;
24435;SDS011;12616;52.470;13.436;2023-01-10T10:01:45;13.00;;;6.78;;
24435;SDS011;12616;52.470;13.436;2023-01-10T10:04:18;15.43;;;7.63;;
24435;SDS011;12616;52.470;13.436;2023-01-10T10:06:49;14.80;;;7.57;;
24435;SDS011;12616;52.470;13.436;2023-01-10T10:09:16;14.45;;;7.30;;
24435;SDS011;12616;52.470;13.436;2023-01-10T10:11:52;11.27;;;6.75;;
24435;SDS011;12616;52.470;13.436;2023-01-10T10:14:38;16.73;;;7.20;;
24435;SDS011;12616;52.470;13.436;2023-01-10T10:17:17;13.07;;;8.25;;
24435;SDS011;12616;52.470;13.436;2023-01-10T10:20:01;19.58;;;8.07;;
24435;SDS011;12616;52.470;13.436;2023-01-10T10:22:43;13.57;;;7.00;;
24435;SDS011;12616;52.470;13.436;2023-01-10T10:25:19;8.48;;;7.03;;
24435;SDS011;12616;52.470;13.436;2023-01-10T10:28:03;13.67;;;6.83;;
24435;SDS011;12616;52.470;13.436;2023-01-10T10:30:43;11.80;;;7.40;;
24435;SDS011;12616;52.470;13.436;2023-01-10T10:33:23;13.02;;;6.50;;
24435;SDS011;12616;52.470;13.436;2023-01-10T10:36:03;12.67;;;6.33;;
24435;SDS011;12616;52.470;13.436;2023-01-10T10:38:36;8.70;;;6.67;;
24435;SDS011;12616;52.470;13.436;2023-01-10T10:41:09;10.38;;;5.80;;
24435;SDS011;12616;52.470;13.436;2023-01-10T10:43:40;11.40;;;6.37;;
24435;SDS011;12616;52.470;13.436;2023-01-10T10:46:11;12.85;;;7.88;;
24435;SDS011;12616;52.470;13.436;2023-01-10T10:48:40;19.10;;;7.60;;
24435;SDS011;12616;52.470;13.436;2023-01-10T10:51:15;13.57;;;6.17;;
24435;SDS011;12616;52.470;13.436;2023-01-10T10:53:48;19.87;;;13.30;;
24435;SDS011;12616;52.470;13.436;2023-01-10T10:56:17;11.90;;;6.13;;
24435;SDS011;12616;52.470;13.436;2023-01-10T10:58:47;9.03;;;5.90;;
24435;SDS011;12616;52.470;13.436;2023-01-10T11:01:17;18.67;;;7.45;;
24435;SDS011;12616;52.470;13.436;2023-01-10T11:03:45;11.80;;;5.40;;
24435;SDS011;12616;52.470;13.436;2023-01-10T11:06:16;14.10;;;6.60;;
24435;SDS011;12616;52.470;13.436;2023-01-10T11:08:45;6.50;;;5.20;;
24435;SDS011;12616;52.470;13.436;2023-01-10T11:11:16;13.30;;;7.63;;
24435;SDS011;12616;52.470;13.436;2023-01-10T11:13:48;15.03;;;6.90;;
24435;SDS011;12616;52.470;13.436;2023-01-10T11:16:22;10.18;;;6.22;;
24435;SDS011;12616;52.470;13.436;2023-01-10T11:19:12;13.50;;;7.25;;
24435;SDS011;12616;52.470;13.436;2023-01-10T11:21:45;7.43;;;6.07;;
24435;SDS011;12616;52.470;13.436;2023-01-10T11:24:17;9.50;;;6.20;;
24435;SDS011;12616;52.470;13.436;2023-01-10T11:26:48;8.35;;;6.65;;
24435;SDS011;12616;52.470;13.436;2023-01-10T11:29:31;12.30;;;7.17;;
24435;SDS011;12616;52.470;13.436;2023-01-10T11:32:07;16.20;;;6.83;;
24435;SDS011;12616;52.470;13.436;2023-01-10T11:34:39;10.20;;;7.90;;
24435;SDS011;12616;52.470;13.436;2023-01-10T11:37:16;12.13;;;6.77;;
24435;SDS011;12616;52.470;13.436;2023-01-10T11:39:45;17.90;;;7.60;;
24435;SDS011;12616;52.470;13.436;2023-01-10T11:44:55;7.97;;;5.47;;
24435;SDS011;12616;52.470;13.436;2023-01-10T11:47:49;8.37;;;6.03;;
24435;SDS011;12616;52.470;13.436;2023-01-10T11:50:19;8.83;;;5.90;;
24435;SDS011;12616;52.470;13.436;2023-01-10T11:52:50;5.23;;;4.73;;
24435;SDS011;12616;52.470;13.436;2023-01-10T11:55:18;11.87;;;4.90;;
24435;SDS011;12616;52.470;13.436;2023-01-10T11:57:54;12.20;;;5.50;;
24435;SDS011;12616;52.470;13.436;2023-01-10T12:00:36;10.93;;;5.45;;
24435;SDS011;12616;52.470;13.436;2023-01-10T12:03:20;10.33;;;6.20;;
24435;SDS011;12616;52.470;13.436;2023-01-10T12:05:53;19.50;;;6.35;;
24435;SDS011;12616;52.470;13.436;2023-01-10T12:14:46;11.13;;;5.18;;
24435;SDS011;12616;52.470;13.436;2023-01-10T12:17:18;8.27;;;5.57;;
24435;SDS011;12616;52.470;13.436;2023-01-10T12:19:47;12.30;;;4.20;;
24435;SDS011;12616;52.470;13.436;2023-01-10T12:22:17;9.63;;;4.40;;
24435;SDS011;12616;52.470;13.436;2023-01-10T12:24:45;12.50;;;4.57;;
24435;SDS011;12616;52.470;13.436;2023-01-10T12:27:14;7.70;;;4.53;;
24435;SDS011;12616;52.470;13.436;2023-01-10T12:29:44;8.23;;;4.87;;
24435;SDS011;12616;52.470;13.436;2023-01-10T12:32:18;17.57;;;4.90;;
24435;SDS011;12616;52.470;13.436;2023-01-10T12:34:49;17.13;;;4.80;;
24435;SDS011;12616;52.470;13.436;2023-01-10T12:37:22;7.83;;;5.03;;
24435;SDS011;12616;52.470;13.436;2023-01-10T12:39:58;13.20;;;5.57;;
24435;SDS011;12616;52.470;13.436;2023-01-10T12:42:32;11.50;;;4.70;;
24435;SDS011;12616;52.470;13.436;2023-01-10T12:45:27;12.60;;;4.37;;
24435;SDS011;12616;52.470;13.436;2023-01-10T12:47:59;9.23;;;4.17;;
24435;SDS011;12616;52.470;13.436;2023-01-10T12:50:33;11.20;;;4.53;;
24435;SDS011;12616;52.470;13.436;2023-01-10T12:53:04;9.73;;;4.20;;
24435;SDS011;12616;52.470;13.436;2023-01-10T12:55:38;10.80;;;4.50;;
24435;SDS011;12616;52.470;13.436;2023-01-10T12:58:11;8.57;;;4.67;;
24435;SDS011;12616;52.470;13.436;2023-01-10T13:00:45;5.73;;;3.70;;
24435;SDS011;12616;52.470;13.436;2023-01-10T13:03:18;10.33;;;4.20;;
24435;SDS011;12616;52.470;13.436;2023-01-10T13:05:46;5.53;;;3.27;;
24435;SDS011;12616;52.470;13.436;2023-01-10T13:08:16;7.83;;;3.43;;
24435;SDS011;12616;52.470;13.436;2023-01-10T13:10:46;7.13;;;3.13;;
24435;SDS011;12616;52.470;13.436;2023-01-10T13:13:19;8.23;;;3.73;;
24435;SDS011;12616;52.470;13.436;2023-01-10T13:15:53;4.77;;;3.50;;
24435;SDS011;12616;52.470;13.436;2023-01-10T13:18:25;8.33;;;3.27;;
24435;SDS011;12616;52.470;13.436;2023-01-10T13:21:02;6.47;;;3.10;;
24435;SDS011;12616;52.470;13.436;2023-01-10T13:23:33;13.93;;;3.90;;
24435;SDS011;12616;52.470;13.436;2023-01-10T13:26:05;14.00;;;4.20;;
24435;SDS011;12616;52.470;13.436;2023-01-10T13:28:36;11.10;;;3.20;;
24435;SDS011;12616;52.470;13.436;2023-01-10T13:31:05;8.97;;;3.10;;
24435;SDS011;12616;52.470;13.436;2023-01-10T13:33:49;12.90;;;3.60;;
24435;SDS011;12616;52.470;13.436;2023-01-10T13:36:19;7.20;;;4.33;;
24435;SDS011;12616;52.470;13.436;2023-01-10T13:38:48;6.03;;;2.83;;
24435;SDS011;12616;52.470;13.436;2023-01-10T13:41:17;12.30;;;5.30;;
24435;SDS011;12616;52.470;13.436;2023-01-10T13:44:08;7.60;;;4.57;;
24435;SDS011;12616;52.470;13.436;2023-01-10T13:55:19;9.23;;;4.33;;
24435;SDS011;12616;52.470;13.436;2023-01-10T13:58:38;10.57;;;4.73;;
24435;SDS011;12616;52.470;13.436;2023-01-10T14:01:34;12.00;;;3.33;;
24435;SDS011;12616;52.470;13.436;2023-01-10T14:04:20;9.10;;;3.93;;
24435;SDS011;12616;52.470;13.436;2023-01-10T14:06:52;12.27;;;4.10;;
24435;SDS011;12616;52.470;13.436;2023-01-10T14:09:31;15.27;;;4.17;;
24435;SDS011;12616;52.470;13.436;2023-01-10T14:12:02;10.10;;;5.10;;
24435;SDS011;12616;52.470;13.436;2023-01-10T14:14:32;7.40;;;4.13;;
24435;SDS011;12616;52.470;13.436;2023-01-10T14:17:13;7.27;;;4.87;;
24435;SDS011;12616;52.470;13.436;2023-01-10T14:19:46;11.93;;;4.73;;
24435;SDS011;12616;52.470;13.436;2023-01-10T14:22:23;17.03;;;5.50;;
24435;SDS011;12616;52.470;13.436;2023-01-10T14:24:53;12.40;;;5.80;;
24435;SDS011;12616;52.470;13.436;2023-01-10T14:27:20;9.77;;;4.97;;
24435;SDS011;12616;52.470;13.436;2023-01-10T14:29:48;14.57;;;5.80;;
24435;SDS011;12616;52.470;13.436;2023-01-10T14:32:23;7.85;;;5.57;;
24435;SDS011;12616;52.470;13.436;2023-01-10T14:34:57;12.80;;;5.30;;
24435;SDS011;12616;52.470;13.436;2023-01-10T14:37:28;8.52;;;5.50;;
24435;SDS011;12616;52.470;13.436;2023-01-10T14:40:02;13.30;;;6.40;;
24435;SDS011;12616;52.470;13.436;2023-01-10T14:42:31;10.65;;;6.13;;
24435;SDS011;12616;52.470;13.436;2023-01-10T14:45:01;7.43;;;4.82;;
24435;SDS011;12616;52.470;13.436;2023-01-10T14:47:35;7.88;;;5.45;;
24435;SDS011;12616;52.470;13.436;2023-01-10T14:50:03;14.00;;;5.37;;
24435;SDS011;12616;52.470;13.436;2023-01-10T14:52:30;12.52;;;6.05;;
24435;SDS011;12616;52.470;13.436;2023-01-10T14:55:01;5.88;;;4.72;;
24435;SDS011;12616;52.470;13.436;2023-01-10T14:57:35;12.13;;;5.57;;
24435;SDS011;12616;52.470;13.436;2023-01-10T15:00:07;16.02;;;6.25;;
24435;SDS011;12616;52.470;13.436;2023-01-10T15:02:43;9.80;;;5.73;;
24435;SDS011;12616;52.470;13.436;2023-01-10T15:05:14;12.90;;;6.20;;
24435;SDS011;12616;52.470;13.436;2023-01-10T15:07:43;13.07;;;5.13;;
24435;SDS011;12616;52.470;13.436;2023-01-10T15:10:16;10.95;;;5.05;;
24435;SDS011;12616;52.470;13.436;2023-01-10T15:12:48;5.80;;;4.60;;
24435;SDS011;12616;52.470;13.436;2023-01-10T15:15:19;13.23;;;5.68;;